createdAt,value
2017-09-03T00:00:30.451Z,1017.32
2017-09-03T00:01:15.178Z,1017.28
2017-09-03T00:01:59.900Z,1017.23
2017-09-03T00:02:44.678Z,1017.24
2017-09-03T00:03:29.396Z,1017.20
2017-09-03T00:04:14.118Z,1017.23
2017-09-03T00:04:58.839Z,1017.22
2017-09-03T00:05:43.561Z,1017.18
2017-09-03T00:06:28.285Z,1017.13
2017-09-03T00:07:13.057Z,1017.16
2017-09-03T00:07:57.804Z,1017.15
2017-09-03T00:08:42.555Z,1017.12
2017-09-03T00:09:27.276Z,1017.13
2017-09-03T00:10:12.002Z,1017.11
2017-09-03T00:10:56.723Z,1017.04
2017-09-03T00:11:41.460Z,1017.05
2017-09-03T00:12:26.182Z,1017.05
2017-09-03T00:13:10.951Z,1017.00
2017-09-03T00:13:55.672Z,1017.00
2017-09-03T00:14:40.393Z,1017.07
2017-09-03T00:15:25.116Z,1017.06
2017-09-03T00:16:09.891Z,1017.06
2017-09-03T00:16:54.610Z,1017.08
2017-09-03T00:17:39.331Z,1017.07
2017-09-03T00:18:24.059Z,1017.06
2017-09-03T00:19:08.780Z,1017.06
2017-09-03T00:19:53.503Z,1017.05
2017-09-03T00:20:38.225Z,1017.08
2017-09-03T00:21:22.950Z,1017.05
2017-09-03T00:22:07.718Z,1017.06
2017-09-03T00:22:52.443Z,1017.07
2017-09-03T00:23:37.166Z,1017.08
2017-09-03T00:24:21.888Z,1017.03
2017-09-03T00:25:06.612Z,1017.03
2017-09-03T00:25:51.337Z,1017.05
2017-09-03T00:26:36.059Z,1017.01
2017-09-03T00:27:20.784Z,1017.08
2017-09-03T00:28:05.507Z,1017.06
2017-09-03T00:28:50.228Z,1017.07
2017-09-03T00:29:34.950Z,1017.12
2017-09-03T00:30:19.671Z,1017.09
2017-09-03T00:31:04.391Z,1017.11
2017-09-03T00:31:49.116Z,1017.07
2017-09-03T00:32:33.888Z,1017.09
2017-09-03T00:33:18.611Z,1017.09
2017-09-03T00:34:03.333Z,1017.10
2017-09-03T00:34:48.058Z,1017.14
2017-09-03T00:35:32.828Z,1017.13
2017-09-03T00:36:17.554Z,1017.20
2017-09-03T00:37:02.276Z,1017.15
2017-09-03T00:37:46.999Z,1017.10
2017-09-03T00:38:31.721Z,1017.15
2017-09-03T00:39:16.493Z,1017.14
2017-09-03T00:40:01.213Z,1017.10
2017-09-03T00:40:45.937Z,1017.10
2017-09-03T00:41:30.660Z,1017.08
2017-09-03T00:42:15.382Z,1017.12
2017-09-03T00:43:00.104Z,1017.12
2017-09-03T00:43:44.877Z,1017.14
2017-09-03T00:44:29.598Z,1017.09
2017-09-03T00:45:14.323Z,1017.11
2017-09-03T00:45:59.045Z,1017.09
2017-09-03T00:46:43.817Z,1017.06
2017-09-03T00:47:28.540Z,1017.07
2017-09-03T00:48:13.261Z,1017.09
2017-09-03T00:48:57.987Z,1017.07
2017-09-03T00:49:42.711Z,1017.04
2017-09-03T00:50:27.434Z,1017.08
2017-09-03T00:51:12.154Z,1017.11
2017-09-03T00:51:56.933Z,1017.15
2017-09-03T00:52:41.650Z,1017.16
2017-09-03T00:53:26.375Z,1017.18
2017-09-03T00:54:11.096Z,1017.14
2017-09-03T00:54:55.823Z,1017.12
2017-09-03T00:55:40.546Z,1017.14
2017-09-03T00:56:25.269Z,1017.15
2017-09-03T00:57:10.043Z,1017.14
2017-09-03T00:57:54.765Z,1017.15
2017-09-03T00:58:39.485Z,1017.11
2017-09-03T00:59:24.209Z,1017.18
2017-09-03T01:00:08.930Z,1017.14
2017-09-03T01:00:53.656Z,1017.15
2017-09-03T01:01:38.378Z,1017.14
2017-09-03T01:02:23.103Z,1017.12
2017-09-03T01:03:07.874Z,1017.17
2017-09-03T01:03:52.596Z,1017.14
2017-09-03T01:04:37.318Z,1017.14
2017-09-03T01:05:22.041Z,1017.12
2017-09-03T01:06:06.765Z,1017.12
2017-09-03T01:06:51.495Z,1017.12
2017-09-03T01:07:36.210Z,1017.15
2017-09-03T01:08:20.932Z,1017.11
2017-09-03T01:09:05.647Z,1017.10
2017-09-03T01:09:50.369Z,1017.18
2017-09-03T01:10:35.095Z,1017.11
2017-09-03T01:11:19.815Z,1017.11
2017-09-03T01:12:04.539Z,1017.11
2017-09-03T01:12:49.260Z,1017.13
2017-09-03T01:13:34.032Z,1017.13
2017-09-03T01:14:18.753Z,1017.12
2017-09-03T01:15:03.485Z,1017.07
2017-09-03T01:15:48.210Z,1017.06
2017-09-03T01:16:32.982Z,1017.05
2017-09-03T01:17:17.755Z,1017.07
2017-09-03T01:18:02.493Z,1017.07
2017-09-03T01:18:47.214Z,1017.08
2017-09-03T01:19:31.938Z,1017.04
2017-09-03T01:20:16.684Z,1017.07
2017-09-03T01:21:01.415Z,1017.04
2017-09-03T01:21:46.137Z,1017.05
2017-09-03T01:22:30.861Z,1017.03
2017-09-03T01:23:15.581Z,1017.03
2017-09-03T01:24:00.305Z,1017.04
2017-09-03T01:24:45.077Z,1017.07
2017-09-03T01:25:29.808Z,1017.06
2017-09-03T01:26:14.521Z,1017.07
2017-09-03T01:26:59.244Z,1017.06
2017-09-03T01:27:44.015Z,1017.07
2017-09-03T01:28:28.738Z,1017.04
2017-09-03T01:29:13.460Z,1017.03
2017-09-03T01:29:58.182Z,1017.01
2017-09-03T01:30:42.906Z,1017.00
2017-09-03T01:31:27.627Z,1017.00
2017-09-03T01:32:12.347Z,1017.02
2017-09-03T01:32:57.281Z,1017.02
2017-09-03T01:33:42.054Z,1016.99
2017-09-03T01:34:26.776Z,1017.03
2017-09-03T01:35:11.499Z,1017.00
2017-09-03T01:35:56.223Z,1017.02
2017-09-03T01:36:40.993Z,1017.03
2017-09-03T01:37:25.716Z,1017.04
2017-09-03T01:38:10.440Z,1017.06
2017-09-03T01:38:55.163Z,1017.02
2017-09-03T01:39:39.884Z,1017.07
2017-09-03T01:40:24.661Z,1017.04
2017-09-03T01:41:09.382Z,1017.02
2017-09-03T01:41:54.104Z,1017.04
2017-09-03T01:42:38.826Z,1017.02
2017-09-03T01:43:23.759Z,1017.00
2017-09-03T01:44:08.482Z,1016.99
2017-09-03T01:44:53.203Z,1017.00
2017-09-03T01:45:37.974Z,1016.96
2017-09-03T01:46:22.695Z,1016.95
2017-09-03T01:47:07.399Z,1016.94
2017-09-03T01:47:52.122Z,1016.95
2017-09-03T01:48:36.890Z,1016.96
2017-09-03T01:49:21.614Z,1016.98
2017-09-03T01:50:06.336Z,1016.97
2017-09-03T01:50:51.067Z,1016.96
2017-09-03T01:51:35.789Z,1016.98
2017-09-03T01:52:20.510Z,1016.98
2017-09-03T01:53:05.243Z,1016.96
2017-09-03T01:53:49.995Z,1016.98
2017-09-03T01:54:34.719Z,1016.98
2017-09-03T01:55:19.443Z,1017.00
2017-09-03T01:56:04.164Z,1016.98
2017-09-03T01:56:48.886Z,1016.97
2017-09-03T01:57:33.606Z,1016.99
2017-09-03T01:58:18.331Z,1016.98
2017-09-03T01:59:03.054Z,1016.99
2017-09-03T01:59:47.776Z,1017.00
2017-09-03T02:00:32.693Z,1016.99
2017-09-03T02:01:17.414Z,1016.97
2017-09-03T02:02:02.346Z,1017.02
2017-09-03T02:02:47.078Z,1017.00
2017-09-03T02:03:31.811Z,1017.02
2017-09-03T02:04:16.582Z,1017.03
2017-09-03T02:05:01.304Z,1017.01
2017-09-03T02:05:46.076Z,1017.00
2017-09-03T02:06:30.801Z,1016.99
2017-09-03T02:07:15.517Z,1016.97
2017-09-03T02:08:00.452Z,1017.01
2017-09-03T02:08:45.174Z,1016.96
2017-09-03T02:09:29.896Z,1017.03
2017-09-03T02:10:14.618Z,1017.05
2017-09-03T02:10:59.340Z,1017.02
2017-09-03T02:11:44.059Z,1017.01
2017-09-03T02:12:28.994Z,1017.06
2017-09-03T02:13:13.715Z,1017.02
2017-09-03T02:13:58.446Z,1016.96
2017-09-03T02:14:43.169Z,1017.02
2017-09-03T02:15:27.891Z,1016.99
2017-09-03T02:16:12.612Z,1016.97
2017-09-03T02:16:57.334Z,1017.01
2017-09-03T02:17:42.074Z,1016.98
2017-09-03T02:18:26.778Z,1016.98
2017-09-03T02:19:11.502Z,1017.01
2017-09-03T02:19:56.225Z,1016.95
2017-09-03T02:20:40.946Z,1016.96
2017-09-03T02:21:25.671Z,1016.99
2017-09-03T02:22:10.393Z,1016.99
2017-09-03T02:22:55.115Z,1016.97
2017-09-03T02:23:39.838Z,1016.98
2017-09-03T02:24:24.559Z,1016.99
2017-09-03T02:25:09.281Z,1016.99
2017-09-03T02:25:54.054Z,1017.03
2017-09-03T02:26:38.776Z,1017.00
2017-09-03T02:27:23.496Z,1016.98
2017-09-03T02:28:08.219Z,1016.97
2017-09-03T02:28:52.951Z,1016.94
2017-09-03T02:29:37.672Z,1016.93
2017-09-03T02:30:22.393Z,1016.96
2017-09-03T02:31:07.115Z,1016.89
2017-09-03T02:31:51.836Z,1016.92
2017-09-03T02:32:36.557Z,1016.93
2017-09-03T02:33:21.280Z,1016.91
2017-09-03T02:34:06.002Z,1016.90
2017-09-03T02:34:50.724Z,1016.88
2017-09-03T02:35:35.448Z,1016.96
2017-09-03T02:36:20.169Z,1016.86
2017-09-03T02:37:04.941Z,1016.91
2017-09-03T02:37:49.662Z,1016.92
2017-09-03T02:38:34.383Z,1016.90
2017-09-03T02:39:19.104Z,1016.91
2017-09-03T02:40:04.040Z,1016.88
2017-09-03T02:40:48.761Z,1016.90
2017-09-03T02:41:33.483Z,1016.86
2017-09-03T02:42:18.205Z,1016.85
2017-09-03T02:43:02.974Z,1016.86
2017-09-03T02:43:47.698Z,1016.82
2017-09-03T02:44:32.421Z,1016.82
2017-09-03T02:45:17.141Z,1016.81
2017-09-03T02:46:01.862Z,1016.83
2017-09-03T02:46:46.594Z,1016.86
2017-09-03T02:47:31.309Z,1016.79
2017-09-03T02:48:16.080Z,1016.82
2017-09-03T02:49:00.804Z,1016.79
2017-09-03T02:49:45.524Z,1016.85
2017-09-03T02:50:30.248Z,1016.82
2017-09-03T02:51:15.018Z,1016.84
2017-09-03T02:51:59.788Z,1016.76
2017-09-03T02:52:44.511Z,1016.75
2017-09-03T02:53:29.235Z,1016.75
2017-09-03T02:54:13.956Z,1016.76
2017-09-03T02:54:58.677Z,1016.77
2017-09-03T02:55:43.400Z,1016.78
2017-09-03T02:56:28.124Z,1016.74
2017-09-03T02:57:12.893Z,1016.77
2017-09-03T02:57:57.616Z,1016.77
2017-09-03T02:58:42.339Z,1016.76
2017-09-03T02:59:27.057Z,1016.76
2017-09-03T03:00:11.829Z,1016.73
2017-09-03T03:00:56.549Z,1016.77
2017-09-03T03:01:41.273Z,1016.70
2017-09-03T03:02:26.045Z,1016.71
2017-09-03T03:03:10.814Z,1016.76
2017-09-03T03:03:55.750Z,1016.71
2017-09-03T03:04:40.521Z,1016.68
2017-09-03T03:05:25.243Z,1016.73
2017-09-03T03:06:09.966Z,1016.71
2017-09-03T03:06:54.673Z,1016.70
2017-09-03T03:07:39.395Z,1016.68
2017-09-03T03:08:24.117Z,1016.62
2017-09-03T03:09:08.838Z,1016.62
2017-09-03T03:09:53.572Z,1016.64
2017-09-03T03:10:38.292Z,1016.64
2017-09-03T03:11:23.016Z,1016.62
2017-09-03T03:12:07.736Z,1016.65
2017-09-03T03:12:52.672Z,1016.60
2017-09-03T03:13:37.393Z,1016.63
2017-09-03T03:14:22.115Z,1016.62
2017-09-03T03:15:06.837Z,1016.65
2017-09-03T03:15:51.560Z,1016.63
2017-09-03T03:16:36.282Z,1016.63
2017-09-03T03:17:21.055Z,1016.60
2017-09-03T03:18:05.775Z,1016.60
2017-09-03T03:18:50.496Z,1016.60
2017-09-03T03:19:35.221Z,1016.59
2017-09-03T03:20:19.999Z,1016.62
2017-09-03T03:21:04.762Z,1016.63
2017-09-03T03:21:49.484Z,1016.63
2017-09-03T03:22:34.206Z,1016.64
2017-09-03T03:23:18.927Z,1016.59
2017-09-03T03:24:03.860Z,1016.59
2017-09-03T03:24:48.594Z,1016.60
2017-09-03T03:25:33.315Z,1016.62
2017-09-03T03:26:18.037Z,1016.66
2017-09-03T03:27:02.809Z,1016.60
2017-09-03T03:27:47.512Z,1016.65
2017-09-03T03:28:32.234Z,1016.66
2017-09-03T03:29:17.005Z,1016.62
2017-09-03T03:30:01.726Z,1016.62
2017-09-03T03:30:46.447Z,1016.61
2017-09-03T03:31:31.170Z,1016.63
2017-09-03T03:32:15.940Z,1016.60
2017-09-03T03:33:00.661Z,1016.61
2017-09-03T03:33:45.383Z,1016.55
2017-09-03T03:34:30.105Z,1016.56
2017-09-03T03:35:14.879Z,1016.59
2017-09-03T03:35:59.651Z,1016.51
2017-09-03T03:36:44.370Z,1016.53
2017-09-03T03:37:29.096Z,1016.54
2017-09-03T03:38:13.865Z,1016.54
2017-09-03T03:38:58.584Z,1016.52
2017-09-03T03:39:43.520Z,1016.54
2017-09-03T03:40:28.242Z,1016.59
2017-09-03T03:41:13.014Z,1016.51
2017-09-03T03:41:57.767Z,1016.53
2017-09-03T03:42:42.489Z,1016.55
2017-09-03T03:43:27.211Z,1016.55
2017-09-03T03:44:11.934Z,1016.55
2017-09-03T03:44:56.657Z,1016.47
2017-09-03T03:45:41.378Z,1016.51
2017-09-03T03:46:26.101Z,1016.51
2017-09-03T03:47:10.822Z,1016.46
2017-09-03T03:47:55.543Z,1016.53
2017-09-03T03:48:40.479Z,1016.47
2017-09-03T03:49:25.205Z,1016.52
2017-09-03T03:50:09.926Z,1016.49
2017-09-03T03:50:54.705Z,1016.51
2017-09-03T03:51:39.423Z,1016.48
2017-09-03T03:52:24.146Z,1016.47
2017-09-03T03:53:08.914Z,1016.50
2017-09-03T03:53:53.637Z,1016.50
2017-09-03T03:54:38.358Z,1016.50
2017-09-03T03:55:23.283Z,1016.52
2017-09-03T03:56:08.011Z,1016.48
2017-09-03T03:56:52.726Z,1016.47
2017-09-03T03:57:37.448Z,1016.45
2017-09-03T03:58:22.400Z,1016.46
2017-09-03T03:59:07.121Z,1016.47
2017-09-03T03:59:51.892Z,1016.48
2017-09-03T04:00:36.612Z,1016.42
2017-09-03T04:01:21.332Z,1016.40
2017-09-03T04:02:06.062Z,1016.40
2017-09-03T04:02:50.780Z,1016.38
2017-09-03T04:03:35.501Z,1016.39
2017-09-03T04:04:20.223Z,1016.42
2017-09-03T04:05:04.998Z,1016.40
2017-09-03T04:05:49.719Z,1016.41
2017-09-03T04:06:34.423Z,1016.42
2017-09-03T04:07:19.149Z,1016.41
2017-09-03T04:08:03.920Z,1016.37
2017-09-03T04:08:48.645Z,1016.37
2017-09-03T04:09:33.368Z,1016.46
2017-09-03T04:10:18.091Z,1016.39
2017-09-03T04:11:02.813Z,1016.39
2017-09-03T04:11:47.538Z,1016.39
2017-09-03T04:12:32.261Z,1016.40
2017-09-03T04:13:16.984Z,1016.41
2017-09-03T04:14:01.707Z,1016.40
2017-09-03T04:14:46.431Z,1016.40
2017-09-03T04:15:31.154Z,1016.40
2017-09-03T04:16:15.878Z,1016.40
2017-09-03T04:17:00.603Z,1016.40
2017-09-03T04:17:45.324Z,1016.45
2017-09-03T04:18:30.097Z,1016.47
2017-09-03T04:19:14.817Z,1016.44
2017-09-03T04:19:59.755Z,1016.45
2017-09-03T04:20:44.477Z,1016.44
2017-09-03T04:21:29.199Z,1016.48
2017-09-03T04:22:13.923Z,1016.46
2017-09-03T04:22:58.648Z,1016.47
2017-09-03T04:23:43.371Z,1016.52
2017-09-03T04:24:28.108Z,1016.53
2017-09-03T04:25:12.834Z,1016.51
2017-09-03T04:25:57.549Z,1016.56
2017-09-03T04:26:42.285Z,1016.55
2017-09-03T04:27:27.008Z,1016.57
2017-09-03T04:28:11.730Z,1016.52
2017-09-03T04:28:56.456Z,1016.50
2017-09-03T04:29:41.185Z,1016.50
2017-09-03T04:30:25.901Z,1016.52
2017-09-03T04:31:10.629Z,1016.49
2017-09-03T04:31:55.350Z,1016.53
2017-09-03T04:32:40.072Z,1016.47
2017-09-03T04:33:24.796Z,1016.51
2017-09-03T04:34:09.522Z,1016.51
2017-09-03T04:34:54.250Z,1016.51
2017-09-03T04:35:38.970Z,1016.54
2017-09-03T04:36:23.699Z,1016.58
2017-09-03T04:37:08.417Z,1016.52
2017-09-03T04:37:53.140Z,1016.56
2017-09-03T04:38:37.864Z,1016.62
2017-09-03T04:39:22.591Z,1016.53
2017-09-03T04:40:07.319Z,1016.52
2017-09-03T04:40:52.092Z,1016.49
2017-09-03T04:41:36.816Z,1016.51
2017-09-03T04:42:21.539Z,1016.50
2017-09-03T04:43:06.270Z,1016.54
2017-09-03T04:43:50.990Z,1016.53
2017-09-03T04:44:35.715Z,1016.51
2017-09-03T04:45:20.442Z,1016.52
2017-09-03T04:46:05.168Z,1016.51
2017-09-03T04:46:49.893Z,1016.54
2017-09-03T04:47:34.620Z,1016.54
2017-09-03T04:48:19.345Z,1016.54
2017-09-03T04:49:04.074Z,1016.55
2017-09-03T04:49:48.796Z,1016.54
2017-09-03T04:50:33.521Z,1016.52
2017-09-03T04:51:18.246Z,1016.52
2017-09-03T04:52:02.972Z,1016.57
2017-09-03T04:52:47.697Z,1016.53
2017-09-03T04:53:32.423Z,1016.52
2017-09-03T04:54:17.152Z,1016.54
2017-09-03T04:55:01.872Z,1016.60
2017-09-03T04:55:46.648Z,1016.59
2017-09-03T04:56:31.376Z,1016.68
2017-09-03T04:57:16.100Z,1016.61
2017-09-03T04:58:00.828Z,1016.59
2017-09-03T04:58:45.551Z,1016.60
2017-09-03T04:59:30.276Z,1016.63
2017-09-03T05:00:15.001Z,1016.61
2017-09-03T05:00:59.727Z,1016.61
2017-09-03T05:01:44.454Z,1016.60
2017-09-03T05:02:29.183Z,1016.63
2017-09-03T05:03:13.907Z,1016.57
2017-09-03T05:03:58.634Z,1016.60
2017-09-03T05:04:43.362Z,1016.61
2017-09-03T05:05:28.089Z,1016.66
2017-09-03T05:06:12.812Z,1016.63
2017-09-03T05:06:57.539Z,1016.63
2017-09-03T05:07:42.266Z,1016.62
2017-09-03T05:08:26.992Z,1016.66
2017-09-03T05:09:11.767Z,1016.64
2017-09-03T05:09:56.494Z,1016.64
2017-09-03T05:10:41.219Z,1016.64
2017-09-03T05:11:25.944Z,1016.65
2017-09-03T05:12:10.671Z,1016.73
2017-09-03T05:12:55.396Z,1016.70
2017-09-03T05:13:40.122Z,1016.69
2017-09-03T05:14:24.849Z,1016.73
2017-09-03T05:15:09.573Z,1016.72
2017-09-03T05:15:54.300Z,1016.71
2017-09-03T05:16:39.027Z,1016.70
2017-09-03T05:17:23.757Z,1016.73
2017-09-03T05:18:08.484Z,1016.74
2017-09-03T05:18:53.211Z,1016.75
2017-09-03T05:19:37.987Z,1016.71
2017-09-03T05:20:22.714Z,1016.70
2017-09-03T05:21:07.440Z,1016.71
2017-09-03T05:21:52.166Z,1016.74
2017-09-03T05:22:36.941Z,1016.72
2017-09-03T05:23:21.667Z,1016.75
2017-09-03T05:24:06.692Z,1016.72
2017-09-03T05:24:51.383Z,1016.73
2017-09-03T05:25:36.108Z,1016.73
2017-09-03T05:26:20.835Z,1016.75
2017-09-03T05:27:05.561Z,1016.76
2017-09-03T05:27:50.288Z,1016.75
2017-09-03T05:28:35.063Z,1016.76
2017-09-03T05:29:19.807Z,1016.72
2017-09-03T05:30:04.623Z,1016.75
2017-09-03T05:30:49.385Z,1016.74
2017-09-03T05:31:34.114Z,1016.73
2017-09-03T05:32:18.891Z,1016.70
2017-09-03T05:33:03.616Z,1016.74
2017-09-03T05:33:48.326Z,1016.76
2017-09-03T05:34:33.063Z,1016.73
2017-09-03T05:35:17.797Z,1016.79
2017-09-03T05:36:02.519Z,1016.74
2017-09-03T05:36:47.283Z,1016.75
2017-09-03T05:37:31.973Z,1016.72
2017-09-03T05:38:16.696Z,1016.73
2017-09-03T05:39:01.423Z,1016.76
2017-09-03T05:39:46.149Z,1016.76
2017-09-03T05:40:30.977Z,1016.76
2017-09-03T05:41:15.691Z,1016.75
2017-09-03T05:42:00.417Z,1016.75
2017-09-03T05:42:45.144Z,1016.77
2017-09-03T05:43:29.918Z,1016.80
2017-09-03T05:44:14.646Z,1016.76
2017-09-03T05:44:59.369Z,1016.74
2017-09-03T05:45:44.095Z,1016.72
2017-09-03T05:46:28.821Z,1016.74
2017-09-03T05:47:13.548Z,1016.80
2017-09-03T05:47:58.279Z,1016.80
2017-09-03T05:48:43.000Z,1016.75
2017-09-03T05:49:27.727Z,1016.76
2017-09-03T05:50:12.454Z,1016.83
2017-09-03T05:50:57.183Z,1016.80
2017-09-03T05:51:41.928Z,1016.82
2017-09-03T05:52:26.654Z,1016.79
2017-09-03T05:53:11.381Z,1016.84
2017-09-03T05:53:56.110Z,1016.82
2017-09-03T05:54:40.838Z,1016.80
2017-09-03T05:55:25.568Z,1016.76
2017-09-03T05:56:10.291Z,1016.74
2017-09-03T05:56:55.018Z,1016.81
2017-09-03T05:57:39.792Z,1016.79
2017-09-03T05:58:24.520Z,1016.85
2017-09-03T05:59:09.248Z,1016.79
2017-09-03T05:59:53.973Z,1016.78
2017-09-03T06:00:38.733Z,1016.83
2017-09-03T06:01:23.444Z,1016.74
2017-09-03T06:02:08.171Z,1016.76
2017-09-03T06:02:52.897Z,1016.75
2017-09-03T06:03:37.623Z,1016.72
2017-09-03T06:04:22.349Z,1016.73
2017-09-03T06:05:07.126Z,1016.78
2017-09-03T06:05:51.859Z,1016.85
2017-09-03T06:06:36.586Z,1016.87
2017-09-03T06:07:21.312Z,1016.87
2017-09-03T06:08:06.040Z,1016.93
2017-09-03T06:08:50.814Z,1016.91
2017-09-03T06:09:35.540Z,1016.95
2017-09-03T06:10:20.265Z,1016.87
2017-09-03T06:11:05.040Z,1016.90
2017-09-03T06:11:49.767Z,1016.90
2017-09-03T06:12:34.494Z,1016.94
2017-09-03T06:13:19.220Z,1016.97
2017-09-03T06:14:03.997Z,1016.98
2017-09-03T06:14:48.723Z,1017.04
2017-09-03T06:15:33.453Z,1017.01
2017-09-03T06:16:18.178Z,1017.04
2017-09-03T06:17:02.952Z,1017.01
2017-09-03T06:17:47.678Z,1016.95
2017-09-03T06:18:32.404Z,1016.95
2017-09-03T06:19:17.160Z,1017.01
2017-09-03T06:20:01.871Z,1017.08
2017-09-03T06:20:46.601Z,1017.10
2017-09-03T06:21:31.326Z,1017.02
2017-09-03T06:22:16.100Z,1017.07
2017-09-03T06:23:00.827Z,1017.05
2017-09-03T06:23:45.553Z,1017.13
2017-09-03T06:24:30.283Z,1017.12
2017-09-03T06:25:15.013Z,1017.27
2017-09-03T06:25:59.790Z,1017.14
2017-09-03T06:26:44.516Z,1017.14
2017-09-03T06:27:29.244Z,1017.10
2017-09-03T06:28:14.020Z,1017.12
2017-09-03T06:28:58.795Z,1017.15
2017-09-03T06:29:43.573Z,1017.06
2017-09-03T06:30:28.302Z,1017.09
2017-09-03T06:31:13.031Z,1017.14
2017-09-03T06:31:57.807Z,1017.18
2017-09-03T06:32:42.551Z,1017.13
2017-09-03T06:33:27.281Z,1017.17
2017-09-03T06:34:12.008Z,1017.14
2017-09-03T06:34:56.754Z,1017.19
2017-09-03T06:35:41.480Z,1017.28
2017-09-03T06:36:26.208Z,1017.25
2017-09-03T06:37:10.933Z,1017.14
2017-09-03T06:37:55.710Z,1017.20
2017-09-03T06:38:40.436Z,1017.19
2017-09-03T06:39:25.164Z,1017.20
2017-09-03T06:40:09.871Z,1017.23
2017-09-03T06:40:54.600Z,1017.28
2017-09-03T06:41:39.329Z,1017.25
2017-09-03T06:42:24.109Z,1017.23
2017-09-03T06:43:08.833Z,1017.24
2017-09-03T06:43:53.562Z,1017.28
2017-09-03T06:44:38.291Z,1017.33
2017-09-03T06:45:23.068Z,1017.32
2017-09-03T06:46:07.799Z,1017.27
2017-09-03T06:46:52.529Z,1017.22
2017-09-03T06:47:37.252Z,1017.27
2017-09-03T06:48:22.030Z,1017.22
2017-09-03T06:49:06.798Z,1017.22
2017-09-03T06:49:51.522Z,1017.20
2017-09-03T06:50:36.250Z,1017.23
2017-09-03T06:51:20.977Z,1017.25
2017-09-03T06:52:05.702Z,1017.23
2017-09-03T06:52:50.429Z,1017.24
2017-09-03T06:53:35.157Z,1017.22
2017-09-03T06:54:19.884Z,1017.21
2017-09-03T06:55:04.611Z,1017.20
2017-09-03T06:55:49.363Z,1017.13
2017-09-03T06:56:34.097Z,1017.27
2017-09-03T06:57:18.823Z,1017.20
2017-09-03T06:58:03.549Z,1017.22
2017-09-03T06:58:48.275Z,1017.26
2017-09-03T06:59:33.003Z,1017.21
2017-09-03T07:00:17.729Z,1017.21
2017-09-03T07:01:02.494Z,1017.24
2017-09-03T07:01:47.250Z,1017.26
2017-09-03T07:02:31.975Z,1017.30
2017-09-03T07:03:16.702Z,1017.32
2017-09-03T07:04:01.430Z,1017.37
2017-09-03T07:04:46.160Z,1017.34
2017-09-03T07:05:30.885Z,1017.37
2017-09-03T07:06:15.612Z,1017.37
2017-09-03T07:07:00.338Z,1017.45
2017-09-03T07:07:45.067Z,1017.45
2017-09-03T07:08:29.795Z,1017.49
2017-09-03T07:09:14.520Z,1017.51
2017-09-03T07:09:59.249Z,1017.52
2017-09-03T07:10:43.979Z,1017.54
2017-09-03T07:11:28.707Z,1017.53
2017-09-03T07:12:13.433Z,1017.58
2017-09-03T07:12:58.167Z,1017.62
2017-09-03T07:13:42.888Z,1017.62
2017-09-03T07:14:27.615Z,1017.61
2017-09-03T07:15:12.346Z,1017.64
2017-09-03T07:15:57.073Z,1017.74
2017-09-03T07:16:41.802Z,1017.60
2017-09-03T07:17:26.530Z,1017.65
2017-09-03T07:18:11.257Z,1017.60
2017-09-03T07:18:55.987Z,1017.60
2017-09-03T07:19:40.714Z,1017.55
2017-09-03T07:20:25.455Z,1017.54
2017-09-03T07:21:10.177Z,1017.56
2017-09-03T07:21:54.901Z,1017.58
2017-09-03T07:22:39.625Z,1017.59
2017-09-03T07:23:24.355Z,1017.53
2017-09-03T07:24:09.082Z,1017.54
2017-09-03T07:24:53.810Z,1017.55
2017-09-03T07:25:38.537Z,1017.49
2017-09-03T07:26:23.264Z,1017.53
2017-09-03T07:27:07.989Z,1017.50
2017-09-03T07:27:52.716Z,1017.49
2017-09-03T07:28:37.445Z,1017.52
2017-09-03T07:29:22.172Z,1017.45
2017-09-03T07:30:06.899Z,1017.43
2017-09-03T07:30:51.629Z,1017.44
2017-09-03T07:31:36.355Z,1017.44
2017-09-03T07:32:21.082Z,1017.42
2017-09-03T07:33:05.811Z,1017.48
2017-09-03T07:33:50.567Z,1017.54
2017-09-03T07:34:35.271Z,1017.54
2017-09-03T07:35:20.030Z,1017.48
2017-09-03T07:36:04.807Z,1017.41
2017-09-03T07:36:49.534Z,1017.46
2017-09-03T07:37:34.262Z,1017.46
2017-09-03T07:38:19.040Z,1017.49
2017-09-03T07:39:03.767Z,1017.41
2017-09-03T07:39:48.495Z,1017.39
2017-09-03T07:40:33.221Z,1017.43
2017-09-03T07:41:17.948Z,1017.44
2017-09-03T07:42:02.678Z,1017.53
2017-09-03T07:42:47.405Z,1017.54
2017-09-03T07:43:32.134Z,1017.54
2017-09-03T07:44:16.913Z,1017.55
2017-09-03T07:45:01.674Z,1017.51
2017-09-03T07:45:46.415Z,1017.52
2017-09-03T07:46:31.143Z,1017.52
2017-09-03T07:47:15.872Z,1017.52
2017-09-03T07:48:00.607Z,1017.46
2017-09-03T07:48:45.367Z,1017.46
2017-09-03T07:49:30.078Z,1017.42
2017-09-03T07:50:14.806Z,1017.45
2017-09-03T07:50:59.533Z,1017.40
2017-09-03T07:51:44.261Z,1017.37
2017-09-03T07:52:29.044Z,1017.37
2017-09-03T07:53:13.766Z,1017.37
2017-09-03T07:53:58.494Z,1017.26
2017-09-03T07:54:43.220Z,1017.24
2017-09-03T07:55:27.948Z,1017.26
2017-09-03T07:56:12.675Z,1017.16
2017-09-03T07:56:57.419Z,1017.18
2017-09-03T07:57:42.147Z,1017.13
2017-09-03T07:58:26.872Z,1017.07
2017-09-03T07:59:11.600Z,1017.11
2017-09-03T07:59:56.325Z,1017.08
2017-09-03T08:00:41.052Z,1017.17
2017-09-03T08:01:25.780Z,1017.23
2017-09-03T08:02:10.507Z,1017.19
2017-09-03T08:02:55.232Z,1017.18
2017-09-03T08:03:39.959Z,1017.18
2017-09-03T08:04:24.686Z,1017.29
2017-09-03T08:05:09.414Z,1017.33
2017-09-03T08:05:54.142Z,1017.30
2017-09-03T08:06:38.870Z,1017.25
2017-09-03T08:07:23.598Z,1017.19
2017-09-03T08:08:08.323Z,1017.30
2017-09-03T08:08:53.830Z,1017.27
2017-09-03T08:09:38.521Z,1017.23
2017-09-03T08:10:23.248Z,1017.25
2017-09-03T08:11:07.978Z,1017.26
2017-09-03T08:11:52.706Z,1017.17
2017-09-03T08:12:37.431Z,1017.15
2017-09-03T08:13:22.159Z,1017.15
2017-09-03T08:14:06.885Z,1017.31
2017-09-03T08:14:51.613Z,1017.40
2017-09-03T08:15:36.343Z,1017.45
2017-09-03T08:16:21.071Z,1017.46
2017-09-03T08:17:05.801Z,1017.50
2017-09-03T08:17:50.529Z,1017.53
2017-09-03T08:18:35.264Z,1017.52
2017-09-03T08:19:19.988Z,1017.49
2017-09-03T08:20:04.717Z,1017.45
2017-09-03T08:20:49.449Z,1017.42
2017-09-03T08:21:34.179Z,1017.33
2017-09-03T08:22:18.912Z,1017.28
2017-09-03T08:23:03.638Z,1017.27
2017-09-03T08:23:48.367Z,1017.28
2017-09-03T08:24:33.097Z,1017.20
2017-09-03T08:25:17.874Z,1017.21
2017-09-03T08:26:02.600Z,1017.20
2017-09-03T08:26:47.324Z,1017.18
2017-09-03T08:27:32.317Z,1017.21
2017-09-03T08:28:17.007Z,1017.20
2017-09-03T08:29:01.768Z,1017.13
2017-09-03T08:29:46.468Z,1017.12
2017-09-03T08:30:24.749Z,1017.11
2017-09-03T08:31:26.642Z,1017.11
2017-09-03T08:32:28.527Z,1017.10
2017-09-03T08:33:30.428Z,1017.09
2017-09-03T08:34:32.257Z,1017.10
2017-09-03T08:35:34.081Z,1017.13
2017-09-03T08:36:35.977Z,1017.14
2017-09-03T08:37:37.861Z,1017.15
2017-09-03T08:38:39.751Z,1017.12
2017-09-03T08:39:53.915Z,1017.05
2017-09-03T08:40:55.854Z,1017.14
2017-09-03T08:41:58.340Z,1017.37
2017-09-03T08:43:00.206Z,1017.47
2017-09-03T08:44:02.099Z,1017.43
2017-09-03T08:45:03.920Z,1017.43
2017-09-03T08:46:05.816Z,1017.35
2017-09-03T08:47:07.704Z,1017.26
2017-09-03T08:48:09.596Z,1017.18
2017-09-03T08:49:23.787Z,1017.08
2017-09-03T08:50:25.942Z,1017.06
2017-09-03T08:51:27.796Z,1017.05
2017-09-03T08:52:29.689Z,1017.11
2017-09-03T08:53:31.515Z,1017.14
2017-09-03T08:54:33.343Z,1017.18
2017-09-03T08:55:35.240Z,1017.12
2017-09-03T08:56:37.126Z,1017.18
2017-09-03T08:57:39.026Z,1017.10
2017-09-03T08:58:53.357Z,1017.04
2017-09-03T08:59:55.245Z,1017.13
2017-09-03T09:00:57.135Z,1017.12
2017-09-03T09:01:59.067Z,1017.19
2017-09-03T09:03:00.892Z,1017.21
2017-09-03T09:04:02.718Z,1017.36
2017-09-03T09:05:04.674Z,1017.30
2017-09-03T09:06:06.596Z,1017.31
2017-09-03T09:07:08.504Z,1017.23
2017-09-03T09:08:22.663Z,1017.18
2017-09-03T09:09:24.555Z,1017.25
2017-09-03T09:10:26.443Z,1017.29
2017-09-03T09:11:28.392Z,1017.25
2017-09-03T09:12:30.272Z,1017.24
2017-09-03T09:13:32.093Z,1017.22